Felix-Klein-Gymnasium, Gttingen, 150m NN
Wetterdaten: aktuell Donnerstag, 28.05.2020 00:30
Datum Zeit Temp. A. Feuchte A. Luftdruck Regen Wind Richtung Richtung Sonnenschein Taupunkt Windchill Windben
28.05.2020 00:30 15,1 C 68 % 1028,8 hPa 0,0 mm 14,1 km/h (3 Bft) N-NO 15 0 min 9,2 C 15,1 C 27,4 km/h (4 Bft)
28.05.2020 00:15 15,2 C 69 % 1028,8 hPa 0,0 mm 11,9 km/h (2 Bft) N-NO 17 0 min 9,6 C 15,2 C 22,5 km/h (4 Bft)
28.05.2020 00:00 15,4 C 69 % 1028,8 hPa 0,0 mm 14,4 km/h (3 Bft) N-NO 17 0 min 9,7 C 15,4 C 25,7 km/h (4 Bft)
27.05.2020 23:45 15,6 C 69 % 1028,6 hPa 0,0 mm 12,9 km/h (3 Bft) N-NO 22 0 min 9,9 C 15,6 C 25,7 km/h (4 Bft)
27.05.2020 23:30 15,8 C 68 % 1028,6 hPa 0,0 mm 17,7 km/h (3 Bft) NO 45 0 min 9,9 C 15,8 C 29,0 km/h (5 Bft)
27.05.2020 23:15 16,0 C 67 % 1028,5 hPa 0,0 mm 16,1 km/h (3 Bft) NO 45 0 min 9,9 C 16,0 C 33,8 km/h (5 Bft)
27.05.2020 23:00 16,4 C 67 % 1028,5 hPa 0,0 mm 13,9 km/h (3 Bft) N-NO 28 0 min 10,3 C 16,4 C 33,8 km/h (5 Bft)
27.05.2020 22:45 16,7 C 67 % 1028,2 hPa 0,0 mm 16,3 km/h (3 Bft) NO 49 0 min 10,5 C 16,7 C 32,2 km/h (5 Bft)
27.05.2020 22:30 17,2 C 66 % 1028,1 hPa 0,0 mm 15,6 km/h (3 Bft) O-NO 58 0 min 10,8 C 17,2 C 30,6 km/h (5 Bft)
27.05.2020 22:15 17,6 C 62 % 1028,0 hPa 0,0 mm 16,4 km/h (3 Bft) N-NO 32 0 min 10,2 C 17,6 C 30,6 km/h (5 Bft)
27.05.2020 22:00 18,3 C 57 % 1027,8 hPa 0,0 mm 12,2 km/h (2 Bft) N-NO 32 0 min 9,6 C 18,3 C 29,0 km/h (5 Bft)
27.05.2020 21:45 18,9 C 51 % 1027,5 hPa 0,0 mm 0,0 km/h (0 Bft) O-NO 63 0 min 8,5 C 18,9 C 0,0 km/h (0 Bft)
27.05.2020 21:30 19,2 C 50 % 1027,3 hPa 0,0 mm 0,0 km/h (0 Bft) O-NO 63 0 min 8,5 C 19,2 C 0,0 km/h (0 Bft)
27.05.2020 21:15 19,6 C 48 % 1027,1 hPa 0,0 mm 0,0 km/h (0 Bft) O-NO 63 0 min 8,3 C 19,6 C 0,0 km/h (0 Bft)
27.05.2020 21:00 19,9 C 46 % 1027,0 hPa 0,0 mm 0,0 km/h (0 Bft) O-NO 63 0 min 7,9 C 19,9 C 0,0 km/h (0 Bft)
27.05.2020 20:45 20,1 C 45 % 1027,0 hPa 0,0 mm 0,7 km/h (0 Bft) NO 39 0 min 7,8 C 20,1 C 8,0 km/h (2 Bft)
27.05.2020 20:30 20,2 C 44 % 1027,0 hPa 0,0 mm 7,0 km/h (2 Bft) O-NO 73 0 min 7,6 C 20,2 C 14,5 km/h (3 Bft)
27.05.2020 20:15 20,4 C 42 % 1027,1 hPa 0,0 mm 7,3 km/h (2 Bft) N-NO 27 0 min 7,1 C 20,4 C 14,5 km/h (3 Bft)
27.05.2020 20:00 20,6 C 43 % 1027,2 hPa 0,0 mm 6,9 km/h (2 Bft) N-NO 14 15 min 7,6 C 20,6 C 19,3 km/h (3 Bft)
27.05.2020 19:45 20,6 C 45 % 1027,3 hPa 0,0 mm 5,2 km/h (1 Bft) NO 46 0 min 8,2 C 20,6 C 14,5 km/h (3 Bft)
27.05.2020 19:30 20,6 C 46 % 1027,5 hPa 0,0 mm 8,2 km/h (2 Bft) NO 50 0 min 8,6 C 20,6 C 19,3 km/h (3 Bft)
27.05.2020 19:15 20,7 C 45 % 1027,5 hPa 0,0 mm 9,9 km/h (2 Bft) O-NO 59 0 min 8,3 C 20,7 C 22,5 km/h (4 Bft)
27.05.2020 19:00 20,9 C 43 % 1027,5 hPa 0,0 mm 4,2 km/h (1 Bft) N-NO 28 0 min 7,8 C 20,9 C 12,9 km/h (3 Bft)
27.05.2020 18:45 21,2 C 42 % 1027,5 hPa 0,0 mm 6,7 km/h (2 Bft) N 11 0 min 7,8 C 21,2 C 14,5 km/h (3 Bft)
27.05.2020 18:30 21,6 C 42 % 1027,5 hPa 0,0 mm 3,8 km/h (1 Bft) N-NO 25 0 min 8,1 C 21,6 C 12,9 km/h (3 Bft)
27.05.2020 18:15 21,3 C 43 % 1027,6 hPa 0,0 mm 6,8 km/h (2 Bft) O-NO 65 15 min 8,2 C 21,3 C 16,1 km/h (3 Bft)
27.05.2020 18:00 21,4 C 41 % 1027,8 hPa 0,0 mm 3,5 km/h (1 Bft) N-NO 15 15 min 7,6 C 21,4 C 12,9 km/h (3 Bft)
27.05.2020 17:45 21,1 C 43 % 1027,9 hPa 0,0 mm 4,2 km/h (1 Bft) N 11 15 min 8,0 C 21,1 C 12,9 km/h (3 Bft)
27.05.2020 17:30 21,0 C 43 % 1028,1 hPa 0,0 mm 7,0 km/h (2 Bft) N 5 0 min 7,9 C 21,0 C 16,1 km/h (3 Bft)
27.05.2020 17:15 21,1 C 44 % 1028,2 hPa 0,0 mm 8,2 km/h (2 Bft) N-NO 32 0 min 8,4 C 21,1 C 17,7 km/h (3 Bft)
27.05.2020 17:00 21,4 C 43 % 1028,2 hPa 0,0 mm 7,0 km/h (2 Bft) NO 35 0 min 8,3 C 21,4 C 16,1 km/h (3 Bft)
27.05.2020 16:45 21,8 C 41 % 1028,3 hPa 0,0 mm 6,5 km/h (2 Bft) O 82 15 min 8,0 C 21,8 C 14,5 km/h (3 Bft)
27.05.2020 16:30 22,8 C 39 % 1028,4 hPa 0,0 mm 6,4 km/h (2 Bft) O-SO 108 15 min 8,1 C 22,8 C 20,9 km/h (4 Bft)
27.05.2020 16:15 23,1 C 38 % 1028,5 hPa 0,0 mm 4,3 km/h (1 Bft) N-NW 342 15 min 8,0 C 23,1 C 17,7 km/h (3 Bft)
27.05.2020 16:00 23,0 C 37 % 1028,6 hPa 0,0 mm 4,2 km/h (1 Bft) N-NO 33 15 min 7,5 C 23,0 C 14,5 km/h (3 Bft)
27.05.2020 15:45 22,9 C 37 % 1028,8 hPa 0,0 mm 5,5 km/h (1 Bft) NW 309 15 min 7,4 C 22,9 C 19,3 km/h (3 Bft)
27.05.2020 15:30 22,7 C 36 % 1029,0 hPa 0,0 mm 4,3 km/h (1 Bft) N 355 15 min 6,9 C 22,7 C 20,9 km/h (4 Bft)
27.05.2020 15:15 21,9 C 40 % 1029,1 hPa 0,0 mm 4,5 km/h (1 Bft) O 90 15 min 7,7 C 21,9 C 19,3 km/h (3 Bft)
27.05.2020 15:00 22,3 C 38 % 1029,2 hPa 0,0 mm 2,9 km/h (1 Bft) O-NO 59 15 min 7,3 C 22,3 C 14,5 km/h (3 Bft)
27.05.2020 14:45 22,2 C 40 % 1029,4 hPa 0,0 mm 1,0 km/h (0 Bft) N-NW 334 15 min 8,0 C 22,2 C 12,9 km/h (3 Bft)
27.05.2020 14:30 22,0 C 42 % 1029,5 hPa 0,0 mm 1,0 km/h (0 Bft) N-NW 346 0 min 8,5 C 22,0 C 9,7 km/h (2 Bft)
27.05.2020 14:15 20,7 C 44 % 1029,7 hPa 0,0 mm 2,3 km/h (1 Bft) NW 313 0 min 8,0 C 20,7 C 12,9 km/h (3 Bft)
27.05.2020 14:00 21,7 C 42 % 1029,8 hPa 0,0 mm 2,3 km/h (1 Bft) N-NW 329 0 min 8,2 C 21,7 C 12,9 km/h (3 Bft)
27.05.2020 13:45 21,6 C 42 % 1029,9 hPa 0,0 mm 4,0 km/h (1 Bft) N-NW 341 15 min 8,1 C 21,6 C 17,7 km/h (3 Bft)
27.05.2020 13:30 21,4 C 44 % 1030,1 hPa 0,0 mm 4,1 km/h (1 Bft) N 350 15 min 8,6 C 21,4 C 19,3 km/h (3 Bft)
27.05.2020 13:15 22,0 C 42 % 1030,1 hPa 0,0 mm 0,5 km/h (0 Bft) SW 232 15 min 8,5 C 22,0 C 8,0 km/h (2 Bft)
27.05.2020 13:00 20,6 C 46 % 1030,3 hPa 0,0 mm 5,7 km/h (1 Bft) NO 36 15 min 8,6 C 20,6 C 16,1 km/h (3 Bft)
27.05.2020 12:45 21,8 C 42 % 1030,3 hPa 0,0 mm 1,7 km/h (1 Bft) S-SO 149 15 min 8,3 C 21,8 C 16,1 km/h (3 Bft)
27.05.2020 12:30 20,4 C 48 % 1030,5 hPa 0,0 mm 2,3 km/h (1 Bft) W-NW 302 15 min 9,0 C 20,4 C 8,0 km/h (2 Bft)
27.05.2020 12:15 19,8 C 49 % 1030,7 hPa 0,0 mm 4,0 km/h (1 Bft) NW 311 0 min 8,8 C 19,8 C 14,5 km/h (3 Bft)
27.05.2020 12:00 20,5 C 49 % 1030,7 hPa 0,0 mm 1,5 km/h (1 Bft) NW 307 15 min 9,4 C 20,5 C 12,9 km/h (3 Bft)
27.05.2020 11:45 19,6 C 50 % 1030,9 hPa 0,0 mm 2,6 km/h (1 Bft) NW 321 0 min 8,9 C 19,6 C 11,3 km/h (2 Bft)
27.05.2020 11:30 20,3 C 48 % 1031,0 hPa 0,0 mm 2,4 km/h (1 Bft) N 5 15 min 8,9 C 20,3 C 11,3 km/h (2 Bft)
27.05.2020 11:15 21,1 C 49 % 1031,1 hPa 0,0 mm 1,3 km/h (1 Bft) S-SW 202 0 min 10,0 C 21,1 C 14,5 km/h (3 Bft)
27.05.2020 11:00 20,5 C 53 % 1031,1 hPa 0,0 mm 1,9 km/h (1 Bft) W-NW 295 15 min 10,6 C 20,5 C 11,3 km/h (2 Bft)
27.05.2020 10:45 20,3 C 56 % 1031,4 hPa 0,0 mm 1,2 km/h (1 Bft) S-SW 206 15 min 11,2 C 20,3 C 11,3 km/h (2 Bft)
27.05.2020 10:30 19,4 C 58 % 1031,5 hPa 0,0 mm 0,6 km/h (0 Bft) N-NW 344 15 min 10,9 C 19,4 C 9,7 km/h (2 Bft)
27.05.2020 10:15 18,9 C 60 % 1031,5 hPa 0,0 mm 0,0 km/h (0 Bft) NW 304 15 min 11,0 C 18,9 C 1,6 km/h (1 Bft)
27.05.2020 10:00 18,2 C 63 % 1031,6 hPa 0,0 mm 0,0 km/h (0 Bft) S-SW 203 15 min 11,0 C 18,2 C 3,2 km/h (1 Bft)
27.05.2020 09:45 17,5 C 64 % 1031,7 hPa 0,0 mm 0,2 km/h (0 Bft) W-SW 244 15 min 10,6 C 17,5 C 6,4 km/h (2 Bft)
27.05.2020 09:30 16,8 C 66 % 1031,7 hPa 0,0 mm 0,2 km/h (0 Bft) S-SW 194 15 min 10,4 C 16,8 C 3,2 km/h (1 Bft)
27.05.2020 09:15 16,1 C 68 % 1031,9 hPa 0,0 mm 0,0 km/h (0 Bft) SW 218 15 min 10,2 C 16,1 C 1,6 km/h (1 Bft)
27.05.2020 09:00 14,9 C 73 % 1031,9 hPa 0,0 mm 0,0 km/h (0 Bft) SW 229 15 min 10,1 C 14,9 C 1,6 km/h (1 Bft)
27.05.2020 08:45 13,7 C 77 % 1032,0 hPa 0,0 mm 0,1 km/h (0 Bft) SW 232 15 min 9,7 C 13,7 C 3,2 km/h (1 Bft)
27.05.2020 08:30 12,7 C 80 % 1032,1 hPa 0,0 mm 0,6 km/h (0 Bft) SW 232 15 min 9,3 C 12,7 C 4,8 km/h (1 Bft)
27.05.2020 08:15 11,9 C 82 % 1032,3 hPa 0,0 mm 1,1 km/h (1 Bft) SW 230 15 min 8,9 C 11,9 C 6,4 km/h (2 Bft)
27.05.2020 08:00 11,3 C 84 % 1032,3 hPa 0,0 mm 0,7 km/h (0 Bft) SW 225 15 min 8,7 C 11,3 C 6,4 km/h (2 Bft)
27.05.2020 07:45 10,4 C 87 % 1032,3 hPa 0,0 mm 0,1 km/h (0 Bft) SW 232 15 min 8,3 C 10,4 C 3,2 km/h (1 Bft)
27.05.2020 07:30 9,8 C 89 % 1032,2 hPa 0,0 mm 0,4 km/h (0 Bft) SW 223 15 min 8,1 C 9,8 C 6,4 km/h (2 Bft)
27.05.2020 07:15 9,2 C 90 % 1032,2 hPa 0,0 mm 1,1 km/h (1 Bft) SW 222 15 min 7,6 C 9,2 C 6,4 km/h (2 Bft)
27.05.2020 07:00 8,6 C 92 % 1032,3 hPa 0,0 mm 0,0 km/h (0 Bft) W-SW 250 15 min 7,4 C 8,6 C 0,0 km/h (0 Bft)
27.05.2020 06:45 8,2 C 92 % 1032,3 hPa 0,0 mm 0,0 km/h (0 Bft) W-SW 250 15 min 7,0 C 8,2 C 0,0 km/h (0 Bft)
27.05.2020 06:30 8,0 C 92 % 1032,3 hPa 0,0 mm 0,0 km/h (0 Bft) W-SW 250 0 min 6,8 C 8,0 C 0,0 km/h (0 Bft)
27.05.2020 06:15 7,8 C 92 % 1032,3 hPa 0,0 mm 0,0 km/h (0 Bft) W-SW 250 0 min 6,6 C 7,8 C 0,0 km/h (0 Bft)
27.05.2020 06:00 7,7 C 93 % 1032,3 hPa 0,0 mm 0,0 km/h (0 Bft) W-SW 250 0 min 6,6 C 7,7 C 0,0 km/h (0 Bft)
27.05.2020 05:45 7,4 C 92 % 1032,1 hPa 0,0 mm 0,0 km/h (0 Bft) W-SW 250 0 min 6,2 C 7,4 C 0,0 km/h (0 Bft)
27.05.2020 05:30 7,4 C 92 % 1032,0 hPa 0,0 mm 0,0 km/h (0 Bft) W-SW 250 0 min 6,2 C 7,4 C 0,0 km/h (0 Bft)
27.05.2020 05:15 7,5 C 92 % 1032,0 hPa 0,0 mm 0,0 km/h (0 Bft) W-SW 250 0 min 6,3 C 7,5 C 0,0 km/h (0 Bft)
27.05.2020 05:00 7,7 C 91 % 1032,0 hPa 0,0 mm 0,0 km/h (0 Bft) W-SW 250 0 min 6,3 C 7,7 C 0,0 km/h (0 Bft)
27.05.2020 04:45 7,9 C 91 % 1032,0 hPa 0,0 mm 0,0 km/h (0 Bft) W-SW 250 0 min 6,5 C 7,9 C 0,0 km/h (0 Bft)
27.05.2020 04:30 8,1 C 91 % 1032,0 hPa 0,0 mm 0,0 km/h (0 Bft) W-SW 250 0 min 6,7 C 8,1 C 0,0 km/h (0 Bft)
27.05.2020 04:15 8,1 C 91 % 1032,1 hPa 0,0 mm 0,0 km/h (0 Bft) W-SW 250 0 min 6,7 C 8,1 C 0,0 km/h (0 Bft)
27.05.2020 04:00 8,2 C 90 % 1032,2 hPa 0,0 mm 0,0 km/h (0 Bft) W-SW 250 0 min 6,7 C 8,2 C 0,0 km/h (0 Bft)
27.05.2020 03:45 8,5 C 90 % 1032,2 hPa 0,0 mm 0,0 km/h (0 Bft) W-SW 251 0 min 7,0 C 8,5 C 0,0 km/h (0 Bft)
27.05.2020 03:30 8,7 C 90 % 1032,2 hPa 0,0 mm 0,0 km/h (0 Bft) W-SW 251 0 min 7,2 C 8,7 C 0,0 km/h (0 Bft)
27.05.2020 03:15 8,8 C 90 % 1032,3 hPa 0,0 mm 0,0 km/h (0 Bft) W-SW 251 0 min 7,3 C 8,8 C 0,0 km/h (0 Bft)
27.05.2020 03:00 9,1 C 89 % 1032,3 hPa 0,0 mm 0,0 km/h (0 Bft) W-SW 251 0 min 7,4 C 9,1 C 0,0 km/h (0 Bft)
27.05.2020 02:45 9,3 C 89 % 1032,4 hPa 0,0 mm 0,0 km/h (0 Bft) W-SW 251 0 min 7,6 C 9,3 C 0,0 km/h (0 Bft)
27.05.2020 02:30 9,7 C 89 % 1032,4 hPa 0,0 mm 0,0 km/h (0 Bft) W-SW 250 0 min 8,0 C 9,7 C 0,0 km/h (0 Bft)
27.05.2020 02:15 9,8 C 88 % 1032,5 hPa 0,0 mm 0,0 km/h (0 Bft) W-SW 253 0 min 7,9 C 9,8 C 0,0 km/h (0 Bft)
27.05.2020 02:00 10,2 C 86 % 1032,6 hPa 0,0 mm 0,0 km/h (0 Bft) W-SW 253 0 min 8,0 C 10,2 C 0,0 km/h (0 Bft)
27.05.2020 01:45 10,6 C 86 % 1032,6 hPa 0,0 mm 0,0 km/h (0 Bft) W-SW 253 0 min 8,4 C 10,6 C 0,0 km/h (0 Bft)
27.05.2020 01:30 10,8 C 85 % 1032,6 hPa 0,0 mm 0,0 km/h (0 Bft) W-SW 253 0 min 8,4 C 10,8 C 0,0 km/h (0 Bft)
27.05.2020 01:15 11,0 C 85 % 1032,5 hPa 0,0 mm 0,0 km/h (0 Bft) W-SW 253 0 min 8,6 C 11,0 C 0,0 km/h (0 Bft)
27.05.2020 01:00 11,2 C 84 % 1032,6 hPa 0,0 mm 0,0 km/h (0 Bft) W-SW 253 0 min 8,6 C 11,2 C 0,0 km/h (0 Bft)
_ Min-Zeit 05:30 15:30 20:30 - 01:00 - - - 05:30 05:30 01:00
Minimum _ 7,4 C 36 % 1027,0 hPa - 0,0 km/h (0 Bft) - - - 6,2 C 7,4 C 0,0 km/h (0 Bft)
_ Max-Zeit 16:30 06:00 01:00 01:00 23:30 - - 06:45 10:45 16:15 23:00
Maximum _ 23,2 C 93 % 1032,6 hPa 0,0 mm 17,7 km/h
NO (3 Bft)
- - 15 min 11,2 C 23,1 C 33,8 km/h
NO (5 Bft)
Durchschnitt _ 16,2 C 64 % 1030,2 hPa #0,0 mm 3,5 km/h (1 Bft) N-NO - #0 min. 8,4 C 16,2 C 10,1 km/h (2 Bft)